sensor_id;sensor_type;location;lat;lon;timestamp;temperature;humidity
46926;DHT22;32667;48.248;-1.700;2023-06-04T00:02:11;18.10;61.40
46926;DHT22;32667;48.248;-1.700;2023-06-04T00:04:39;18.00;61.40
46926;DHT22;32667;48.248;-1.700;2023-06-04T00:07:05;18.00;61.40
46926;DHT22;32667;48.248;-1.700;2023-06-04T00:09:33;18.00;61.40
46926;DHT22;32667;48.248;-1.700;2023-06-04T00:11:58;17.90;61.40
46926;DHT22;32667;48.248;-1.700;2023-06-04T00:14:25;17.90;61.40
46926;DHT22;32667;48.248;-1.700;2023-06-04T00:16:50;17.90;61.40
46926;DHT22;32667;48.248;-1.700;2023-06-04T00:19:16;17.80;61.40
46926;DHT22;32667;48.248;-1.700;2023-06-04T00:21:42;17.80;61.40
46926;DHT22;32667;48.248;-1.700;2023-06-04T00:24:10;17.80;61.40
46926;DHT22;32667;48.248;-1.700;2023-06-04T00:26:37;17.80;61.40
46926;DHT22;32667;48.248;-1.700;2023-06-04T00:29:06;17.80;61.40
46926;DHT22;32667;48.248;-1.700;2023-06-04T00:31:32;17.70;61.90
46926;DHT22;32667;48.248;-1.700;2023-06-04T00:33:58;17.70;61.40
46926;DHT22;32667;48.248;-1.700;2023-06-04T00:36:28;17.70;61.40
46926;DHT22;32667;48.248;-1.700;2023-06-04T00:38:54;17.70;61.40
46926;DHT22;32667;48.248;-1.700;2023-06-04T00:41:23;17.70;61.40
46926;DHT22;32667;48.248;-1.700;2023-06-04T00:43:49;17.60;62.00
46926;DHT22;32667;48.248;-1.700;2023-06-04T00:46:25;17.60;61.40
46926;DHT22;32667;48.248;-1.700;2023-06-04T00:48:52;17.50;61.40
46926;DHT22;32667;48.248;-1.700;2023-06-04T00:51:19;17.50;61.40
46926;DHT22;32667;48.248;-1.700;2023-06-04T00:53:51;17.50;61.40
46926;DHT22;32667;48.248;-1.700;2023-06-04T00:56:18;17.50;61.40
46926;DHT22;32667;48.248;-1.700;2023-06-04T00:58:45;17.50;61.40
46926;DHT22;32667;48.248;-1.700;2023-06-04T01:01:27;17.40;61.40
46926;DHT22;32667;48.248;-1.700;2023-06-04T01:04:00;17.40;61.50
46926;DHT22;32667;48.248;-1.700;2023-06-04T01:06:44;17.30;61.40
46926;DHT22;32667;48.248;-1.700;2023-06-04T01:09:10;17.30;61.50
46926;DHT22;32667;48.248;-1.700;2023-06-04T01:11:39;17.30;61.50
46926;DHT22;32667;48.248;-1.700;2023-06-04T01:14:09;17.30;61.50
46926;DHT22;32667;48.248;-1.700;2023-06-04T01:17:10;17.30;61.50
46926;DHT22;32667;48.248;-1.700;2023-06-04T01:22:43;17.20;61.50
46926;DHT22;32667;48.248;-1.700;2023-06-04T01:25:12;17.20;61.60
46926;DHT22;32667;48.248;-1.700;2023-06-04T01:27:41;17.10;61.60
46926;DHT22;32667;48.248;-1.700;2023-06-04T01:30:08;17.10;61.50
46926;DHT22;32667;48.248;-1.700;2023-06-04T01:32:42;17.00;61.50
46926;DHT22;32667;48.248;-1.700;2023-06-04T01:35:11;17.00;61.60
46926;DHT22;32667;48.248;-1.700;2023-06-04T01:37:39;17.00;61.60
46926;DHT22;32667;48.248;-1.700;2023-06-04T01:40:05;17.00;61.60
46926;DHT22;32667;48.248;-1.700;2023-06-04T01:42:34;16.90;61.60
46926;DHT22;32667;48.248;-1.700;2023-06-04T01:45:01;16.90;61.60
46926;DHT22;32667;48.248;-1.700;2023-06-04T01:47:26;16.90;61.70
46926;DHT22;32667;48.248;-1.700;2023-06-04T01:49:54;16.90;61.70
46926;DHT22;32667;48.248;-1.700;2023-06-04T01:52:23;16.80;61.70
46926;DHT22;32667;48.248;-1.700;2023-06-04T01:54:49;16.80;61.70
46926;DHT22;32667;48.248;-1.700;2023-06-04T01:57:20;16.80;61.70
46926;DHT22;32667;48.248;-1.700;2023-06-04T01:59:48;16.70;61.70
46926;DHT22;32667;48.248;-1.700;2023-06-04T02:02:21;16.70;61.70
46926;DHT22;32667;48.248;-1.700;2023-06-04T02:04:47;16.70;62.30
46926;DHT22;32667;48.248;-1.700;2023-06-04T02:07:13;16.70;61.70
46926;DHT22;32667;48.248;-1.700;2023-06-04T02:09:51;16.60;61.70
46926;DHT22;32667;48.248;-1.700;2023-06-04T02:12:19;16.70;61.70
46926;DHT22;32667;48.248;-1.700;2023-06-04T02:14:48;16.70;61.70
46926;DHT22;32667;48.248;-1.700;2023-06-04T02:17:14;16.70;61.70
46926;DHT22;32667;48.248;-1.700;2023-06-04T02:19:45;16.60;61.60
46926;DHT22;32667;48.248;-1.700;2023-06-04T02:22:19;16.70;61.70
46926;DHT22;32667;48.248;-1.700;2023-06-04T02:24:48;16.60;61.60
46926;DHT22;32667;48.248;-1.700;2023-06-04T02:27:17;16.60;61.60
46926;DHT22;32667;48.248;-1.700;2023-06-04T02:29:43;16.60;61.60
46926;DHT22;32667;48.248;-1.700;2023-06-04T02:32:13;16.50;61.60
46926;DHT22;32667;48.248;-1.700;2023-06-04T02:34:41;16.50;61.60
46926;DHT22;32667;48.248;-1.700;2023-06-04T02:37:07;16.50;61.70
46926;DHT22;32667;48.248;-1.700;2023-06-04T02:39:33;16.50;61.70
46926;DHT22;32667;48.248;-1.700;2023-06-04T02:41:59;16.40;61.70
46926;DHT22;32667;48.248;-1.700;2023-06-04T02:44:25;16.40;61.70
46926;DHT22;32667;48.248;-1.700;2023-06-04T02:46:55;16.40;61.70
46926;DHT22;32667;48.248;-1.700;2023-06-04T02:49:20;16.40;61.70
46926;DHT22;32667;48.248;-1.700;2023-06-04T02:51:49;16.40;61.70
46926;DHT22;32667;48.248;-1.700;2023-06-04T02:54:15;16.30;61.70
46926;DHT22;32667;48.248;-1.700;2023-06-04T02:56:49;16.40;61.80
46926;DHT22;32667;48.248;-1.700;2023-06-04T02:59:21;16.30;61.70
46926;DHT22;32667;48.248;-1.700;2023-06-04T03:01:54;16.30;61.70
46926;DHT22;32667;48.248;-1.700;2023-06-04T03:04:24;16.30;61.70
46926;DHT22;32667;48.248;-1.700;2023-06-04T03:06:50;16.30;61.70
46926;DHT22;32667;48.248;-1.700;2023-06-04T03:09:31;16.30;61.70
46926;DHT22;32667;48.248;-1.700;2023-06-04T03:12:00;16.30;61.70
46926;DHT22;32667;48.248;-1.700;2023-06-04T03:14:32;16.30;61.70
46926;DHT22;32667;48.248;-1.700;2023-06-04T03:17:01;16.20;61.60
46926;DHT22;32667;48.248;-1.700;2023-06-04T03:19:40;16.20;61.70
46926;DHT22;32667;48.248;-1.700;2023-06-04T03:22:09;16.20;61.70
46926;DHT22;32667;48.248;-1.700;2023-06-04T03:24:40;16.20;61.70
46926;DHT22;32667;48.248;-1.700;2023-06-04T03:27:08;16.20;61.70
46926;DHT22;32667;48.248;-1.700;2023-06-04T03:29:42;16.10;61.70
46926;DHT22;32667;48.248;-1.700;2023-06-04T03:32:10;16.10;61.70
46926;DHT22;32667;48.248;-1.700;2023-06-04T03:34:36;16.10;61.80
46926;DHT22;32667;48.248;-1.700;2023-06-04T03:37:06;16.10;61.80
46926;DHT22;32667;48.248;-1.700;2023-06-04T03:39:35;16.10;61.80
46926;DHT22;32667;48.248;-1.700;2023-06-04T03:42:01;16.00;61.70
46926;DHT22;32667;48.248;-1.700;2023-06-04T03:44:37;16.00;61.80
46926;DHT22;32667;48.248;-1.700;2023-06-04T03:47:02;16.00;61.70
46926;DHT22;32667;48.248;-1.700;2023-06-04T03:49:30;16.00;61.80
46926;DHT22;32667;48.248;-1.700;2023-06-04T03:51:56;15.90;61.80
46926;DHT22;32667;48.248;-1.700;2023-06-04T03:54:24;15.90;61.80
46926;DHT22;32667;48.248;-1.700;2023-06-04T03:56:50;16.00;61.80
46926;DHT22;32667;48.248;-1.700;2023-06-04T03:59:16;15.90;61.80
46926;DHT22;32667;48.248;-1.700;2023-06-04T04:01:42;15.90;61.80
46926;DHT22;32667;48.248;-1.700;2023-06-04T04:04:11;15.90;61.80
46926;DHT22;32667;48.248;-1.700;2023-06-04T04:06:36;15.90;61.80
46926;DHT22;32667;48.248;-1.700;2023-06-04T04:09:04;15.90;61.80
46926;DHT22;32667;48.248;-1.700;2023-06-04T04:11:36;15.90;61.80
46926;DHT22;32667;48.248;-1.700;2023-06-04T04:14:01;15.80;61.80
46926;DHT22;32667;48.248;-1.700;2023-06-04T04:16:32;15.80;61.80
46926;DHT22;32667;48.248;-1.700;2023-06-04T04:18:58;15.80;61.80
46926;DHT22;32667;48.248;-1.700;2023-06-04T04:21:23;15.80;61.80
46926;DHT22;32667;48.248;-1.700;2023-06-04T04:23:52;15.80;61.90
46926;DHT22;32667;48.248;-1.700;2023-06-04T04:26:17;15.80;61.80
46926;DHT22;32667;48.248;-1.700;2023-06-04T04:28:46;15.70;61.80
46926;DHT22;32667;48.248;-1.700;2023-06-04T04:31:12;15.70;61.80
46926;DHT22;32667;48.248;-1.700;2023-06-04T04:33:38;15.70;62.40
46926;DHT22;32667;48.248;-1.700;2023-06-04T04:36:06;15.70;61.80
46926;DHT22;32667;48.248;-1.700;2023-06-04T04:38:34;15.70;61.80
46926;DHT22;32667;48.248;-1.700;2023-06-04T04:41:02;15.70;61.80
46926;DHT22;32667;48.248;-1.700;2023-06-04T04:43:32;15.70;61.80
46926;DHT22;32667;48.248;-1.700;2023-06-04T04:45:58;15.70;61.80
46926;DHT22;32667;48.248;-1.700;2023-06-04T04:48:24;15.70;61.80
46926;DHT22;32667;48.248;-1.700;2023-06-04T04:50:55;15.70;61.80
46926;DHT22;32667;48.248;-1.700;2023-06-04T04:53:23;15.70;61.80
46926;DHT22;32667;48.248;-1.700;2023-06-04T04:55:52;15.60;61.80
46926;DHT22;32667;48.248;-1.700;2023-06-04T04:58:18;15.60;61.80
46926;DHT22;32667;48.248;-1.700;2023-06-04T05:00:46;15.60;61.80
46926;DHT22;32667;48.248;-1.700;2023-06-04T05:03:13;15.60;61.70
46926;DHT22;32667;48.248;-1.700;2023-06-04T05:05:42;15.60;61.70
46926;DHT22;32667;48.248;-1.700;2023-06-04T05:08:11;15.60;61.70
46926;DHT22;32667;48.248;-1.700;2023-06-04T05:10:44;15.60;62.30
46926;DHT22;32667;48.248;-1.700;2023-06-04T05:13:12;15.60;61.60
46926;DHT22;32667;48.248;-1.700;2023-06-04T05:15:38;15.60;61.60
46926;DHT22;32667;48.248;-1.700;2023-06-04T05:18:05;15.70;61.60
46926;DHT22;32667;48.248;-1.700;2023-06-04T05:20:31;15.70;61.60
46926;DHT22;32667;48.248;-1.700;2023-06-04T05:22:57;15.70;61.60
46926;DHT22;32667;48.248;-1.700;2023-06-04T05:25:22;15.70;61.60
46926;DHT22;32667;48.248;-1.700;2023-06-04T05:27:48;15.70;61.50
46926;DHT22;32667;48.248;-1.700;2023-06-04T05:30:23;15.70;61.50
46926;DHT22;32667;48.248;-1.700;2023-06-04T05:32:49;15.80;61.50
46926;DHT22;32667;48.248;-1.700;2023-06-04T05:35:18;15.80;61.40
46926;DHT22;32667;48.248;-1.700;2023-06-04T05:37:44;15.80;61.40
46926;DHT22;32667;48.248;-1.700;2023-06-04T05:40:11;15.80;61.30
46926;DHT22;32667;48.248;-1.700;2023-06-04T05:42:38;15.90;61.30
46926;DHT22;32667;48.248;-1.700;2023-06-04T05:45:06;15.90;61.30
46926;DHT22;32667;48.248;-1.700;2023-06-04T05:47:35;16.00;61.20
46926;DHT22;32667;48.248;-1.700;2023-06-04T05:50:02;16.00;61.10
46926;DHT22;32667;48.248;-1.700;2023-06-04T05:52:31;16.00;61.10
46926;DHT22;32667;48.248;-1.700;2023-06-04T05:54:59;16.00;61.10
46926;DHT22;32667;48.248;-1.700;2023-06-04T05:57:30;16.00;61.00
46926;DHT22;32667;48.248;-1.700;2023-06-04T05:59:56;16.10;61.00
46926;DHT22;32667;48.248;-1.700;2023-06-04T06:02:21;16.10;60.90
46926;DHT22;32667;48.248;-1.700;2023-06-04T06:04:47;16.20;60.90
46926;DHT22;32667;48.248;-1.700;2023-06-04T06:07:15;16.20;60.80
46926;DHT22;32667;48.248;-1.700;2023-06-04T06:09:41;16.20;60.70
46926;DHT22;32667;48.248;-1.700;2023-06-04T06:12:06;16.30;60.70
46926;DHT22;32667;48.248;-1.700;2023-06-04T06:14:34;16.40;60.60
46926;DHT22;32667;48.248;-1.700;2023-06-04T06:17:01;16.50;60.60
46926;DHT22;32667;48.248;-1.700;2023-06-04T06:19:28;16.50;60.60
46926;DHT22;32667;48.248;-1.700;2023-06-04T06:21:54;16.70;60.20
46926;DHT22;32667;48.248;-1.700;2023-06-04T06:24:21;16.80;60.10
46926;DHT22;32667;48.248;-1.700;2023-06-04T06:26:49;16.90;59.90
46926;DHT22;32667;48.248;-1.700;2023-06-04T06:29:17;17.10;59.70
46926;DHT22;32667;48.248;-1.700;2023-06-04T06:31:42;17.20;59.50
46926;DHT22;32667;48.248;-1.700;2023-06-04T06:34:08;17.40;59.30
46926;DHT22;32667;48.248;-1.700;2023-06-04T06:36:36;17.60;59.20
46926;DHT22;32667;48.248;-1.700;2023-06-04T06:39:04;17.70;58.90
46926;DHT22;32667;48.248;-1.700;2023-06-04T06:41:38;17.90;58.60
46926;DHT22;32667;48.248;-1.700;2023-06-04T06:44:06;18.20;58.40
46926;DHT22;32667;48.248;-1.700;2023-06-04T06:46:32;18.40;58.20
46926;DHT22;32667;48.248;-1.700;2023-06-04T06:48:58;18.50;58.00
46926;DHT22;32667;48.248;-1.700;2023-06-04T06:51:23;18.70;57.90
46926;DHT22;32667;48.248;-1.700;2023-06-04T06:53:52;18.90;57.70
46926;DHT22;32667;48.248;-1.700;2023-06-04T06:56:17;19.10;57.60
46926;DHT22;32667;48.248;-1.700;2023-06-04T06:58:51;19.20;57.50
46926;DHT22;32667;48.248;-1.700;2023-06-04T07:01:17;19.30;57.30
46926;DHT22;32667;48.248;-1.700;2023-06-04T07:03:43;19.50;57.30
46926;DHT22;32667;48.248;-1.700;2023-06-04T07:06:12;19.60;57.30
46926;DHT22;32667;48.248;-1.700;2023-06-04T07:08:40;19.80;57.20
46926;DHT22;32667;48.248;-1.700;2023-06-04T07:11:08;19.90;57.10
46926;DHT22;32667;48.248;-1.700;2023-06-04T07:13:39;20.00;57.00
46926;DHT22;32667;48.248;-1.700;2023-06-04T07:16:05;20.20;56.90
46926;DHT22;32667;48.248;-1.700;2023-06-04T07:18:31;20.30;56.80
46926;DHT22;32667;48.248;-1.700;2023-06-04T07:21:00;20.40;56.80
46926;DHT22;32667;48.248;-1.700;2023-06-04T07:23:28;20.50;56.80
46926;DHT22;32667;48.248;-1.700;2023-06-04T07:25:54;20.60;56.70
46926;DHT22;32667;48.248;-1.700;2023-06-04T07:28:20;20.70;56.70
46926;DHT22;32667;48.248;-1.700;2023-06-04T07:30:48;20.80;56.70
46926;DHT22;32667;48.248;-1.700;2023-06-04T07:33:13;20.90;56.60
46926;DHT22;32667;48.248;-1.700;2023-06-04T07:35:39;20.90;56.60
46926;DHT22;32667;48.248;-1.700;2023-06-04T07:38:05;21.00;56.60
46926;DHT22;32667;48.248;-1.700;2023-06-04T07:40:31;21.10;56.60
46926;DHT22;32667;48.248;-1.700;2023-06-04T07:43:01;21.20;56.60
46926;DHT22;32667;48.248;-1.700;2023-06-04T07:45:27;21.30;56.70
46926;DHT22;32667;48.248;-1.700;2023-06-04T07:47:55;21.30;56.60
46926;DHT22;32667;48.248;-1.700;2023-06-04T07:50:23;21.30;56.60
46926;DHT22;32667;48.248;-1.700;2023-06-04T07:52:51;21.30;56.70
46926;DHT22;32667;48.248;-1.700;2023-06-04T07:55:17;21.40;56.80
46926;DHT22;32667;48.248;-1.700;2023-06-04T07:57:43;21.40;56.80
46926;DHT22;32667;48.248;-1.700;2023-06-04T08:00:09;21.50;56.80
46926;DHT22;32667;48.248;-1.700;2023-06-04T08:02:41;21.50;56.70
46926;DHT22;32667;48.248;-1.700;2023-06-04T08:05:12;21.60;56.70
46926;DHT22;32667;48.248;-1.700;2023-06-04T08:07:47;21.70;56.70
46926;DHT22;32667;48.248;-1.700;2023-06-04T08:10:13;21.70;56.60
46926;DHT22;32667;48.248;-1.700;2023-06-04T08:12:38;21.80;56.60
46926;DHT22;32667;48.248;-1.700;2023-06-04T08:15:07;21.80;56.60
46926;DHT22;32667;48.248;-1.700;2023-06-04T08:17:33;21.90;56.60
46926;DHT22;32667;48.248;-1.700;2023-06-04T08:20:01;22.00;56.60
46926;DHT22;32667;48.248;-1.700;2023-06-04T08:22:26;22.00;56.50
46926;DHT22;32667;48.248;-1.700;2023-06-04T08:24:54;22.10;56.50
46926;DHT22;32667;48.248;-1.700;2023-06-04T08:27:20;22.20;56.50
46926;DHT22;32667;48.248;-1.700;2023-06-04T08:29:48;22.30;56.40
46926;DHT22;32667;48.248;-1.700;2023-06-04T08:32:21;22.30;56.40
46926;DHT22;32667;48.248;-1.700;2023-06-04T08:34:47;22.40;56.30
46926;DHT22;32667;48.248;-1.700;2023-06-04T08:37:16;22.50;56.30
46926;DHT22;32667;48.248;-1.700;2023-06-04T08:39:44;22.60;56.30
46926;DHT22;32667;48.248;-1.700;2023-06-04T08:42:31;22.60;56.30
46926;DHT22;32667;48.248;-1.700;2023-06-04T08:45:03;22.70;56.30
46926;DHT22;32667;48.248;-1.700;2023-06-04T08:47:29;22.80;56.20
46926;DHT22;32667;48.248;-1.700;2023-06-04T08:49:59;22.80;56.10
46926;DHT22;32667;48.248;-1.700;2023-06-04T08:52:26;22.90;56.10
46926;DHT22;32667;48.248;-1.700;2023-06-04T08:54:53;23.00;56.10
46926;DHT22;32667;48.248;-1.700;2023-06-04T08:57:19;23.10;56.00
46926;DHT22;32667;48.248;-1.700;2023-06-04T08:59:48;23.10;55.90
46926;DHT22;32667;48.248;-1.700;2023-06-04T09:02:17;23.20;55.80
46926;DHT22;32667;48.248;-1.700;2023-06-04T09:04:46;23.30;55.80
46926;DHT22;32667;48.248;-1.700;2023-06-04T09:07:15;23.40;55.70
46926;DHT22;32667;48.248;-1.700;2023-06-04T09:09:45;23.50;55.70
46926;DHT22;32667;48.248;-1.700;2023-06-04T09:12:17;23.50;55.70
46926;DHT22;32667;48.248;-1.700;2023-06-04T09:14:48;23.60;55.70
46926;DHT22;32667;48.248;-1.700;2023-06-04T09:43:06;24.10;55.50
46926;DHT22;32667;48.248;-1.700;2023-06-04T09:45:34;24.20;55.40
46926;DHT22;32667;48.248;-1.700;2023-06-04T09:48:03;24.20;55.40
46926;DHT22;32667;48.248;-1.700;2023-06-04T09:50:34;24.20;55.40
46926;DHT22;32667;48.248;-1.700;2023-06-04T09:53:18;24.30;55.40
46926;DHT22;32667;48.248;-1.700;2023-06-04T10:22:44;24.70;55.20
46926;DHT22;32667;48.248;-1.700;2023-06-04T10:25:13;24.70;55.20
46926;DHT22;32667;48.248;-1.700;2023-06-04T10:27:39;24.80;55.30
46926;DHT22;32667;48.248;-1.700;2023-06-04T10:30:11;24.80;55.30
46926;DHT22;32667;48.248;-1.700;2023-06-04T10:32:37;24.80;55.20
46926;DHT22;32667;48.248;-1.700;2023-06-04T10:35:13;24.80;55.30
46926;DHT22;32667;48.248;-1.700;2023-06-04T10:37:41;24.80;55.20
46926;DHT22;32667;48.248;-1.700;2023-06-04T10:40:09;24.80;55.20
46926;DHT22;32667;48.248;-1.700;2023-06-04T10:42:40;24.90;55.20
46926;DHT22;32667;48.248;-1.700;2023-06-04T10:45:08;24.90;55.20
46926;DHT22;32667;48.248;-1.700;2023-06-04T10:47:37;25.00;55.20
46926;DHT22;32667;48.248;-1.700;2023-06-04T10:50:14;25.10;55.10
46926;DHT22;32667;48.248;-1.700;2023-06-04T10:52:53;25.10;55.00
46926;DHT22;32667;48.248;-1.700;2023-06-04T10:55:31;25.20;55.00
46926;DHT22;32667;48.248;-1.700;2023-06-04T10:58:02;25.30;55.00
46926;DHT22;32667;48.248;-1.700;2023-06-04T11:03:09;25.30;54.90
46926;DHT22;32667;48.248;-1.700;2023-06-04T11:05:37;25.40;54.90
46926;DHT22;32667;48.248;-1.700;2023-06-04T11:08:08;25.40;54.90
46926;DHT22;32667;48.248;-1.700;2023-06-04T11:10:44;25.50;54.80
46926;DHT22;32667;48.248;-1.700;2023-06-04T11:13:13;25.60;54.80
46926;DHT22;32667;48.248;-1.700;2023-06-04T11:15:46;25.60;54.70
46926;DHT22;32667;48.248;-1.700;2023-06-04T11:18:21;25.70;54.70
46926;DHT22;32667;48.248;-1.700;2023-06-04T11:20:48;25.80;54.70
46926;DHT22;32667;48.248;-1.700;2023-06-04T11:23:23;25.90;54.60
46926;DHT22;32667;48.248;-1.700;2023-06-04T11:25:52;25.90;54.60
46926;DHT22;32667;48.248;-1.700;2023-06-04T11:28:18;26.10;54.60
46926;DHT22;32667;48.248;-1.700;2023-06-04T11:31:02;26.10;54.50
46926;DHT22;32667;48.248;-1.700;2023-06-04T11:33:29;26.20;54.50
46926;DHT22;32667;48.248;-1.700;2023-06-04T11:35:55;26.20;54.40
46926;DHT22;32667;48.248;-1.700;2023-06-04T11:38:23;26.30;54.40
46926;DHT22;32667;48.248;-1.700;2023-06-04T11:40:59;26.40;54.40
46926;DHT22;32667;48.248;-1.700;2023-06-04T11:43:28;26.50;54.30
46926;DHT22;32667;48.248;-1.700;2023-06-04T11:46:00;26.60;54.30
46926;DHT22;32667;48.248;-1.700;2023-06-04T11:48:33;26.60;54.30
46926;DHT22;32667;48.248;-1.700;2023-06-04T11:51:04;26.70;54.30
46926;DHT22;32667;48.248;-1.700;2023-06-04T11:53:30;26.70;54.20
46926;DHT22;32667;48.248;-1.700;2023-06-04T11:55:56;26.70;54.20
46926;DHT22;32667;48.248;-1.700;2023-06-04T11:58:24;26.80;54.30
46926;DHT22;32667;48.248;-1.700;2023-06-04T12:00:52;26.80;54.30
46926;DHT22;32667;48.248;-1.700;2023-06-04T12:03:18;26.90;54.20
46926;DHT22;32667;48.248;-1.700;2023-06-04T12:05:48;27.00;54.20
46926;DHT22;32667;48.248;-1.700;2023-06-04T12:08:14;27.10;54.10
46926;DHT22;32667;48.248;-1.700;2023-06-04T12:10:41;27.20;54.10
46926;DHT22;32667;48.248;-1.700;2023-06-04T12:13:08;27.30;54.00
46926;DHT22;32667;48.248;-1.700;2023-06-04T12:15:34;27.40;54.00
46926;DHT22;32667;48.248;-1.700;2023-06-04T12:18:03;27.50;54.00
46926;DHT22;32667;48.248;-1.700;2023-06-04T12:23:00;27.70;53.80
46926;DHT22;32667;48.248;-1.700;2023-06-04T12:25:29;27.80;53.80
46926;DHT22;32667;48.248;-1.700;2023-06-04T12:27:55;27.90;53.70
46926;DHT22;32667;48.248;-1.700;2023-06-04T12:30:35;28.00;53.60
46926;DHT22;32667;48.248;-1.700;2023-06-04T12:33:03;28.10;53.60
46926;DHT22;32667;48.248;-1.700;2023-06-04T12:35:33;28.20;53.50
46926;DHT22;32667;48.248;-1.700;2023-06-04T12:38:05;28.40;53.50
46926;DHT22;32667;48.248;-1.700;2023-06-04T12:40:37;28.50;53.40
46926;DHT22;32667;48.248;-1.700;2023-06-04T12:43:05;28.60;53.90
46926;DHT22;32667;48.248;-1.700;2023-06-04T12:45:34;28.70;53.20
46926;DHT22;32667;48.248;-1.700;2023-06-04T12:48:00;28.70;53.40
46926;DHT22;32667;48.248;-1.700;2023-06-04T12:50:26;28.80;53.50
46926;DHT22;32667;48.248;-1.700;2023-06-04T12:52:56;28.90;53.40
46926;DHT22;32667;48.248;-1.700;2023-06-04T12:55:24;29.00;53.30
46926;DHT22;32667;48.248;-1.700;2023-06-04T12:57:50;29.00;53.50
46926;DHT22;32667;48.248;-1.700;2023-06-04T13:00:20;29.00;53.60
46926;DHT22;32667;48.248;-1.700;2023-06-04T13:02:46;29.20;53.60
46926;DHT22;32667;48.248;-1.700;2023-06-04T13:05:12;29.40;53.40
46926;DHT22;32667;48.248;-1.700;2023-06-04T13:07:43;29.60;53.20
46926;DHT22;32667;48.248;-1.700;2023-06-04T13:10:09;29.80;53.10
46926;DHT22;32667;48.248;-1.700;2023-06-04T13:12:35;29.90;53.00
46926;DHT22;32667;48.248;-1.700;2023-06-04T13:15:00;29.90;53.10
46926;DHT22;32667;48.248;-1.700;2023-06-04T13:17:30;29.80;53.10
46926;DHT22;32667;48.248;-1.700;2023-06-04T13:19:59;29.80;53.50
46926;DHT22;32667;48.248;-1.700;2023-06-04T13:22:25;29.70;53.60
46926;DHT22;32667;48.248;-1.700;2023-06-04T13:24:53;29.80;53.60
46926;DHT22;32667;48.248;-1.700;2023-06-04T13:27:18;29.80;53.70
46926;DHT22;32667;48.248;-1.700;2023-06-04T13:29:44;29.80;53.80
46926;DHT22;32667;48.248;-1.700;2023-06-04T13:32:11;29.90;53.70
46926;DHT22;32667;48.248;-1.700;2023-06-04T13:34:37;30.00;53.50
46926;DHT22;32667;48.248;-1.700;2023-06-04T13:37:05;30.20;53.50
46926;DHT22;32667;48.248;-1.700;2023-06-04T13:39:32;30.30;53.40
46926;DHT22;32667;48.248;-1.700;2023-06-04T13:42:00;30.50;53.30
46926;DHT22;32667;48.248;-1.700;2023-06-04T13:44:32;30.70;53.10
46926;DHT22;32667;48.248;-1.700;2023-06-04T13:47:00;30.80;53.00
46926;DHT22;32667;48.248;-1.700;2023-06-04T13:49:31;30.80;53.10
46926;DHT22;32667;48.248;-1.700;2023-06-04T13:52:00;30.70;53.80
46926;DHT22;32667;48.248;-1.700;2023-06-04T13:54:32;30.80;53.30
46926;DHT22;32667;48.248;-1.700;2023-06-04T13:57:02;30.80;53.50
46926;DHT22;32667;48.248;-1.700;2023-06-04T13:59:34;30.90;53.40
46926;DHT22;32667;48.248;-1.700;2023-06-04T14:02:00;31.10;53.20
46926;DHT22;32667;48.248;-1.700;2023-06-04T14:04:26;31.00;53.30
46926;DHT22;32667;48.248;-1.700;2023-06-04T14:06:54;31.00;53.40
46926;DHT22;32667;48.248;-1.700;2023-06-04T14:09:22;31.00;53.40
46926;DHT22;32667;48.248;-1.700;2023-06-04T14:11:50;31.10;53.40
46926;DHT22;32667;48.248;-1.700;2023-06-04T14:14:24;31.10;53.30
46926;DHT22;32667;48.248;-1.700;2023-06-04T14:16:53;31.00;53.50
46926;DHT22;32667;48.248;-1.700;2023-06-04T14:19:23;30.90;53.70
46926;DHT22;32667;48.248;-1.700;2023-06-04T14:21:49;30.90;53.60
46926;DHT22;32667;48.248;-1.700;2023-06-04T14:24:14;31.10;53.50
46926;DHT22;32667;48.248;-1.700;2023-06-04T14:26:48;31.20;53.50
46926;DHT22;32667;48.248;-1.700;2023-06-04T14:29:18;31.30;53.40
46926;DHT22;32667;48.248;-1.700;2023-06-04T14:31:46;31.40;53.30
46926;DHT22;32667;48.248;-1.700;2023-06-04T14:34:14;31.50;53.20
46926;DHT22;32667;48.248;-1.700;2023-06-04T14:36:40;31.60;53.10
46926;DHT22;32667;48.248;-1.700;2023-06-04T14:39:08;31.60;53.20
46926;DHT22;32667;48.248;-1.700;2023-06-04T14:41:36;31.50;53.40
46926;DHT22;32667;48.248;-1.700;2023-06-04T14:44:02;31.30;53.50
46926;DHT22;32667;48.248;-1.700;2023-06-04T14:46:28;31.10;53.70
46926;DHT22;32667;48.248;-1.700;2023-06-04T14:48:59;31.10;54.00
46926;DHT22;32667;48.248;-1.700;2023-06-04T14:51:28;31.20;54.00
46926;DHT22;32667;48.248;-1.700;2023-06-04T14:53:54;31.20;53.70
46926;DHT22;32667;48.248;-1.700;2023-06-04T14:56:24;31.30;53.60
46926;DHT22;32667;48.248;-1.700;2023-06-04T14:58:51;31.40;53.50
46926;DHT22;32667;48.248;-1.700;2023-06-04T15:01:16;31.50;53.40
46926;DHT22;32667;48.248;-1.700;2023-06-04T15:03:42;31.60;53.30
46926;DHT22;32667;48.248;-1.700;2023-06-04T15:06:08;31.60;53.30
46926;DHT22;32667;48.248;-1.700;2023-06-04T15:08:34;31.60;53.40
46926;DHT22;32667;48.248;-1.700;2023-06-04T15:10:59;31.70;53.40
46926;DHT22;32667;48.248;-1.700;2023-06-04T15:13:25;31.70;53.30
46926;DHT22;32667;48.248;-1.700;2023-06-04T15:15:54;31.70;53.90
46926;DHT22;32667;48.248;-1.700;2023-06-04T15:18:19;31.80;53.30
46926;DHT22;32667;48.248;-1.700;2023-06-04T15:20:50;31.90;53.30
46926;DHT22;32667;48.248;-1.700;2023-06-04T15:23:18;31.90;53.30
46926;DHT22;32667;48.248;-1.700;2023-06-04T15:25:44;31.90;53.30
46926;DHT22;32667;48.248;-1.700;2023-06-04T15:28:12;31.90;53.40
46926;DHT22;32667;48.248;-1.700;2023-06-04T15:30:40;31.90;53.40
46926;DHT22;32667;48.248;-1.700;2023-06-04T15:33:06;31.80;53.50
46926;DHT22;32667;48.248;-1.700;2023-06-04T15:35:31;31.60;53.70
46926;DHT22;32667;48.248;-1.700;2023-06-04T15:37:57;31.50;53.80
46926;DHT22;32667;48.248;-1.700;2023-06-04T15:40:23;31.50;53.90
46926;DHT22;32667;48.248;-1.700;2023-06-04T15:42:54;31.30;54.30
46926;DHT22;32667;48.248;-1.700;2023-06-04T15:45:20;31.20;54.10
46926;DHT22;32667;48.248;-1.700;2023-06-04T15:47:52;31.00;54.40
46926;DHT22;32667;48.248;-1.700;2023-06-04T15:50:21;30.90;54.50
46926;DHT22;32667;48.248;-1.700;2023-06-04T15:52:47;30.90;54.50
46926;DHT22;32667;48.248;-1.700;2023-06-04T15:55:13;31.00;54.40
46926;DHT22;32667;48.248;-1.700;2023-06-04T15:57:39;31.00;54.30
46926;DHT22;32667;48.248;-1.700;2023-06-04T16:00:06;31.10;54.20
46926;DHT22;32667;48.248;-1.700;2023-06-04T16:02:32;31.00;54.10
46926;DHT22;32667;48.248;-1.700;2023-06-04T16:04:58;30.90;54.30
46926;DHT22;32667;48.248;-1.700;2023-06-04T16:07:26;30.70;54.60
46926;DHT22;32667;48.248;-1.700;2023-06-04T16:09:52;30.60;54.70
46926;DHT22;32667;48.248;-1.700;2023-06-04T16:12:20;30.60;54.70
46926;DHT22;32667;48.248;-1.700;2023-06-04T16:14:49;30.60;55.30
46926;DHT22;32667;48.248;-1.700;2023-06-04T16:17:15;30.60;54.50
46926;DHT22;32667;48.248;-1.700;2023-06-04T16:19:41;30.70;54.40
46926;DHT22;32667;48.248;-1.700;2023-06-04T16:22:09;30.70;54.30
46926;DHT22;32667;48.248;-1.700;2023-06-04T16:24:35;30.70;54.30